Latest Coastal Weather Observations for Lihou Reef Lighthouse

IDQ60701

Issued at 8:22 pm EST Thursday 30 June 2016 (issued every 10 minutes, with the page automatically refreshed every 10 minutes)

About coastal observations | Map of coastal stations | Coastal observations for QLD | Marine services | Other Formats
Station Details ID: 200880 Name: LIHOU REEF LIGHTHOUSE Lat: -17.13 Lon: 152.15 Height: 0.0 m
Data from the previous 72 hours. | See also: Recent months at Lihou Reef Lighthouse
Date/Time
EST
Temp
°C
Wind Pressure Rain since
9am
mm
Weather Cloud Vis
km
Sea
Height
m
Swell
Dir  Spd
kts
Gust
kts
hPa Trend Height
m
Period
s
Dir
30/08:00pm 24.9 SE 17 21 1018.2 - - - - - - - - -
30/07:30pm 24.7 SE 17 21 1017.8 - - - - - - - - -
30/07:00pm 24.6 SSE 14 17 1017.6 - - - - - - - - -
30/06:30pm 24.8 SE 12 15 1017.3 - - - - - - - - -
30/06:00pm 24.6 SE 13 16 1016.9 - - - - - - - - -
30/05:30pm 24.7 SSE 13 16 1016.8 - - - - - - - - -
30/05:00pm 24.9 SSE 12 15 1016.6 - - - - - - - - -
30/04:30pm 25.0 SSE 12 15 1016.3 - - - - - - - - -
30/04:00pm 24.9 SSE 11 14 1016.0 - - - - - - - - -
30/03:30pm 25.1 SSE 12 15 1015.8 - - - - - - - - -
30/03:00pm 25.1 SE 11 14 1015.9 - - - - - - - - -
30/02:30pm 25.3 SSE 12 15 1015.9 - - - - - - - - -
30/02:00pm 25.1 SE 12 15 1016.0 - - - - - - - - -
30/01:30pm 25.2 SE 13 15 1016.4 - - - - - - - - -
30/01:00pm 25.1 SE 16 19 1016.7 - - - - - - - - -
30/12:30pm 25.3 ESE 15 19 1017.2 - - - - - - - - -
30/12:00pm 25.4 ESE 14 17 1017.7 - - - - - - - - -
30/11:30am 25.3 ESE 15 18 1018.1 - - - - - - - - -
30/11:00am 25.2 ESE 17 20 1018.3 - - - - - - - - -
30/10:30am 25.1 ESE 16 19 1018.7 - - - - - - - - -
30/10:00am 25.2 ESE 17 20 1018.9 - - - - - - - - -
30/09:30am 25.4 ESE 15 18 1019.0 - - - - - - - - -
30/09:00am 25.5 ESE 16 19 1019.1 - - - - - - - - -
30/08:30am 25.3 ESE 18 21 1019.0 - - - - - - - - -
30/08:00am 24.8 ESE 19 23 1018.9 - - - - - - - - -
30/07:30am 24.4 ESE 18 22 1018.7 - - - - - - - - -
30/07:00am 24.4 ESE 19 24 1018.4 - - - - - - - - -
30/06:30am 24.3 SE 19 24 1018.2 - - - - - - - - -
30/06:00am 23.9 SE 21 26 1017.8 - - - - - - - - -
30/05:30am 23.9 SE 22 26 1017.5 - - - - - - - - -
30/05:00am 23.8 SE 23 27 1017.2 - - - - - - - - -
30/04:30am 24.7 SE 19 23 1017.2 - - - - - - - - -
30/04:00am 24.5 SE 18 23 1017.1 - - - - - - - - -
30/03:30am 24.8 SE 21 26 1017.3 - - - - - - - - -
30/03:00am 24.6 SE 22 26 1017.2 - - - - - - - - -
30/02:30am 24.0 SE 23 28 1017.3 - - - - - - - - -
30/02:00am 24.7 ESE 18 22 1017.5 - - - - - - - - -
30/01:30am 24.8 ESE 17 20 1018.0 - - - - - - - - -
30/01:00am 24.6 SE 18 22 1018.1 - - - - - - - - -
30/12:30am 24.5 ESE 17 22 1018.3 - - - - - - - - -
30/12:00am 24.4 ESE 17 20 1018.4 - - - - - - - - -
 
Date/Time
EST
Temp
°C
Wind Pressure Rain since
9am
mm
Weather Cloud Vis
km
Sea
Height
m
Swell
Dir  Spd
kts
Gust
kts
hPa Trend Height
m
Period
s
Dir
29/11:30pm 24.5 SE 20 23 1018.6 - - - - - - - - -
29/11:00pm 24.7 SE 19 23 1018.8 - - - - - - - - -
29/10:30pm 24.7 ESE 19 22 1019.0 - - - - - - - - -
29/10:00pm 24.3 ESE 20 26 1019.2 - - - - - - - - -
29/09:30pm 24.5 SE 18 25 1019.6 - - - - - - - - -
29/09:00pm 24.4 ESE 19 24 1019.6 - - - - - - - - -
29/08:30pm 24.3 ESE 18 21 1019.4 - - - - - - - - -
29/08:00pm 24.1 SE 17 21 1019.4 - - - - - - - - -
29/07:30pm 24.2 SE 18 22 1019.1 - - - - - - - - -
29/07:00pm 24.2 SE 21 25 1018.7 - - - - - - - - -
29/06:30pm 23.9 SE 19 25 1018.4 - - - - - - - - -
29/06:00pm 23.9 SE 18 22 1018.2 - - - - - - - - -
29/05:30pm 23.9 SE 20 25 1018.0 - - - - - - - - -
29/05:00pm 23.8 SE 21 26 1017.7 - - - - - - - - -
29/04:30pm 24.0 SE 19 22 1017.5 - - - - - - - - -
29/04:00pm 23.8 SE 20 23 1017.2 - - - - - - - - -
29/03:30pm 23.9 SE 19 23 1017.1 - - - - - - - - -
29/03:00pm 23.8 SE 19 23 1017.0 - - - - - - - - -
29/02:30pm 23.7 SSE 19 22 1017.0 - - - - - - - - -
29/02:00pm 23.6 SSE 20 24 1017.1 - - - - - - - - -
29/01:30pm 23.5 SE 21 24 1017.6 - - - - - - - - -
29/01:00pm 23.7 SE 20 23 1017.9 - - - - - - - - -
29/12:30pm 23.6 SSE 20 25 1018.1 - - - - - - - - -
29/12:00pm 23.5 SSE 20 25 1018.6 - - - - - - - - -
29/11:30am 23.4 SE 20 23 1019.2 - - - - - - - - -
29/11:00am 23.5 SE 21 26 1019.3 - - - - - - - - -
29/10:30am 23.6 SE 19 23 1019.4 - - - - - - - - -
29/10:00am 23.4 SSE 21 25 1019.5 - - - - - - - - -
29/09:30am 23.4 SE 21 25 1019.7 - - - - - - - - -
29/09:00am 23.4 SE 21 25 1019.8 - - - - - - - - -
29/08:30am 23.2 SE 21 25 1019.8 - - - - - - - - -
29/08:00am 23.1 SE 21 26 1019.5 - - - - - - - - -
29/07:30am 23.1 SSE 22 25 1019.2 - - - - - - - - -
29/07:00am 22.8 SSE 23 28 1018.9 - - - - - - - - -
29/06:30am 22.8 SSE 23 27 1018.9 - - - - - - - - -
29/06:00am 22.9 SSE 24 29 1018.5 - - - - - - - - -
29/05:30am 22.8 SSE 24 29 1018.3 - - - - - - - - -
29/05:00am 22.7 SSE 23 27 1018.2 - - - - - - - - -
29/04:30am 22.5 SSE 23 29 1018.1 - - - - - - - - -
29/04:00am 22.5 SSE 23 26 1018.1 - - - - - - - - -
29/03:30am 22.7 SSE 24 29 1017.9 - - - - - - - - -
29/03:00am 22.7 SSE 23 27 1017.9 - - - - - - - - -
29/02:30am 23.1 SSE 23 28 1017.9 - - - - - - - - -
29/02:00am 23.1 SSE 22 27 1018.2 - - - - - - - - -
29/01:30am 23.4 SSE 22 26 1018.5 - - - - - - - - -
29/01:00am 23.3 S 22 27 1018.7 - - - - - - - - -
29/12:30am 23.2 SSE 23 27 1018.9 - - - - - - - - -
29/12:00am 23.5 S 23 28 1019.1 - - - - - - - - -
 
Date/Time
EST
Temp
°C
Wind Pressure Rain since
9am
mm
Weather Cloud Vis
km
Sea
Height
m
Swell
Dir  Spd
kts
Gust
kts
hPa Trend Height
m
Period
s
Dir
28/11:30pm 23.7 SSE 23 29 1018.9 - - - - - - - - -
28/11:00pm 23.9 S 23 29 1019.2 - - - - - - - - -
28/10:30pm 23.6 S 24 28 1019.1 - - - - - - - - -
28/10:00pm 23.8 S 23 26 1019.4 - - - - - - - - -
28/09:30pm 24.1 SSE 22 27 1019.2 - - - - - - - - -
28/09:00pm 23.9 S 27 31 1018.8 - - - - - - - - -
28/08:30pm 24.2 S 28 34 1018.3 - - - - - - - - -
28/08:00pm 24.2 S 27 32 1018.4 - - - - - - - - -
28/07:30pm 24.3 S 28 32 1018.1 - - - - - - - - -
28/07:00pm 24.4 S 26 31 1017.8 - - - - - - - - -
28/06:30pm 24.6 S 25 30 1017.3 - - - - - - - - -
28/06:00pm 24.5 S 26 30 1016.8 - - - - - - - - -
28/05:30pm 24.7 S 26 31 1016.5 - - - - - - - - -
28/05:00pm 24.6 S 26 30 1016.2 - - - - - - - - -
28/04:30pm 24.5 S 26 30 1015.8 - - - - - - - - -
28/04:00pm 24.7 SSE 24 29 1015.5 - - - - - - - - -
28/03:30pm 24.1 S 25 29 1015.5 - - - - - - - - -
28/03:00pm 23.8 S 22 25 1015.5 - - - - - - - - -
28/02:51pm 24.1 SSE 17 22 1015.7 - - - - - - - - -
28/02:30pm 23.0 SSE 17 22 1015.9 - - - - - - - - -
28/02:28pm 23.3 SSE 17 21 1015.9 - - - - - - - - -
28/02:00pm 23.9 S 21 27 1015.5 - - - - - - - - -
28/01:50pm 25.0 SSE 11 20 1015.8 - - - - - - - - -
28/01:30pm 26.1 SE 8 9 1015.9 - - - - - - - - -
28/01:00pm 26.2 SE 8 10 1016.1 - - - - - - - - -
28/12:30pm 26.3 SE 8 9 1016.6 - - - - - - - - -
28/12:00pm 26.1 SE 9 10 1016.8 - - - - - - - - -
28/11:30am 25.9 SE 9 10 1017.2 - - - - - - - - -
28/11:00am 25.6 SE 10 11 1017.4 - - - - - - - - -
28/10:30am 25.2 SE 9 10 1017.7 - - - - - - - - -
28/10:00am 24.9 SE 10 18 1017.8 - - - - - - - - -
28/09:30am 25.9 SE 9 11 1017.8 - - - - - - - - -
28/09:00am 25.9 SE 10 11 1017.7 - - - - - - - - -
28/08:30am 25.8 SSE 10 11 1017.5 - - - - - - - - -
28/08:00am 25.8 SSE 9 10 1017.3 - - - - - - - - -
28/07:30am 25.5 SSE 8 11 1017.1 - - - - - - - - -
28/07:00am 25.5 SSE 8 10 1016.7 - - - - - - - - -
28/06:30am 25.3 SE 8 9 1016.0 - - - - - - - - -
28/06:00am 25.2 ESE 8 9 1015.7 - - - - - - - - -
28/05:30am 25.3 ESE 7 8 1015.4 - - - - - - - - -
28/05:00am 25.2 SE 7 9 1015.4 - - - - - - - - -
28/04:30am 25.3 SE 7 8 1015.4 - - - - - - - - -
28/04:00am 25.4 SE 8 9 1015.3 - - - - - - - - -
28/03:30am 25.4 SE 7 8 1015.2 - - - - - - - - -
28/03:00am 25.4 SE 8 9 1015.3 - - - - - - - - -
28/02:30am 25.4 SE 7 8 1015.4 - - - - - - - - -
28/02:00am 25.4 SE 7 9 1015.6 - - - - - - - - -
28/01:30am 25.5 SE 8 9 1015.7 - - - - - - - - -
28/01:00am 25.5 ESE 7 9 1016.0 - - - - - - - - -
28/12:30am 25.5 SE 8 9 1016.1 - - - - - - - - -
28/12:00am 25.5 SE 8 9 1016.2 - - - - - - - - -
 
Date/Time
EST
Temp
°C
Wind Pressure Rain since
9am
mm
Weather Cloud Vis
km
Sea
Height
m
Swell
Dir  Spd
kts
Gust
kts
hPa Trend Height
m
Period
s
Dir
27/11:30pm 25.6 ESE 8 9 1016.2 - - - - - - - - -
27/11:00pm 25.7 ESE 7 9 1016.3 - - - - - - - - -
27/10:30pm 25.7 ESE 7 8 1016.5 - - - - - - - - -
27/10:00pm 25.7 ESE 7 9 1016.4 - - - - - - - - -
27/09:30pm 25.8 SE 7 9 1016.4 - - - - - - - - -
27/09:00pm 25.8 SE 7 8 1016.4 - - - - - - - - -
27/08:30pm 25.8 SE 7 9 1016.1 - - - - - - - - -

Other Formats:

Comma delimited format used in spreadsheet applications
http://www.bom.gov.au/fwo/IDQ60701/IDQ60701.94293.axf

JavaScript Object Notation format (JSON) in row-major order
http://www.bom.gov.au/fwo/IDQ60701/IDQ60701.94293.json